createdAt,value
2022-11-07T00:00:50.238Z,13.91
2022-11-07T00:03:20.005Z,13.95
2022-11-07T00:05:49.584Z,13.93
2022-11-07T00:08:19.264Z,13.93
2022-11-07T00:10:48.769Z,13.98
2022-11-07T00:13:20.057Z,13.98
2022-11-07T00:15:50.020Z,13.97
2022-11-07T00:18:19.486Z,13.91
2022-11-07T00:20:48.944Z,13.96
2022-11-07T00:23:18.443Z,13.98
2022-11-07T00:25:48.017Z,13.97
2022-11-07T00:28:17.644Z,13.95
2022-11-07T00:30:48.500Z,13.98
2022-11-07T00:33:17.980Z,13.96
2022-11-07T00:35:47.863Z,13.96
2022-11-07T00:38:17.349Z,13.98
2022-11-07T00:40:54.681Z,13.98
2022-11-07T00:43:24.529Z,13.95
2022-11-07T00:45:55.597Z,13.95
2022-11-07T00:48:25.127Z,13.95
2022-11-07T00:50:54.681Z,13.93
2022-11-07T00:53:24.331Z,13.98
2022-11-07T00:55:55.658Z,13.94
2022-11-07T00:58:25.198Z,13.96
2022-11-07T01:00:56.086Z,13.97
2022-11-07T01:03:43.479Z,13.94
2022-11-07T01:06:13.064Z,13.91
2022-11-07T01:08:42.864Z,13.90
2022-11-07T01:11:12.313Z,13.95
2022-11-07T01:13:42.568Z,13.95
2022-11-07T01:16:14.170Z,13.95
2022-11-07T01:18:44.117Z,13.96
2022-11-07T01:21:16.438Z,13.91
2022-11-07T01:23:46.345Z,13.97
2022-11-07T01:26:16.285Z,13.97
2022-11-07T01:28:45.865Z,13.93
2022-11-07T01:31:17.390Z,13.91
2022-11-07T01:33:46.972Z,13.91
2022-11-07T01:36:17.503Z,13.91
2022-11-07T01:38:49.002Z,13.94
2022-11-07T01:41:23.094Z,13.96
2022-11-07T01:43:55.092Z,13.96
2022-11-07T01:46:27.893Z,13.93
2022-11-07T01:49:00.594Z,13.93
2022-11-07T01:51:32.537Z,13.95
2022-11-07T01:54:02.565Z,13.96
2022-11-07T01:56:34.529Z,13.98
2022-11-07T01:59:04.337Z,13.96
2022-11-07T02:01:35.408Z,13.92
2022-11-07T02:04:05.606Z,13.93
2022-11-07T02:06:38.763Z,13.92
2022-11-07T02:09:08.302Z,13.88
2022-11-07T02:11:38.325Z,13.90
2022-11-07T02:14:08.269Z,13.86
2022-11-07T02:16:39.776Z,13.90
2022-11-07T02:19:11.877Z,13.90
2022-11-07T02:21:45.261Z,13.89
2022-11-07T02:24:18.821Z,13.93
2022-11-07T02:26:48.620Z,13.85
2022-11-07T02:29:18.165Z,13.88
2022-11-07T02:31:47.697Z,13.86
2022-11-07T02:34:17.197Z,13.85
2022-11-07T02:36:47.245Z,13.89
2022-11-07T02:39:18.110Z,13.88
2022-11-07T02:41:48.618Z,13.89
2022-11-07T02:44:18.371Z,13.88
2022-11-07T02:46:48.052Z,13.88
2022-11-07T02:49:17.473Z,13.86
2022-11-07T02:51:47.101Z,13.83
2022-11-07T02:54:17.987Z,13.87
2022-11-07T02:56:47.513Z,13.86
2022-11-07T02:59:17.046Z,13.81
2022-11-07T03:01:46.982Z,13.80
2022-11-07T03:04:16.653Z,13.83
2022-11-07T03:06:46.077Z,13.83
2022-11-07T03:09:15.605Z,13.83
2022-11-07T03:11:47.148Z,13.82
2022-11-07T03:14:17.217Z,13.82
2022-11-07T03:16:47.288Z,13.83
2022-11-07T03:19:17.013Z,13.81
2022-11-07T03:21:46.569Z,13.81
2022-11-07T03:24:16.046Z,13.88
2022-11-07T03:26:46.960Z,13.83
2022-11-07T03:29:16.547Z,13.85
2022-11-07T03:31:46.164Z,13.80
2022-11-07T03:34:15.611Z,13.82
2022-11-07T03:36:45.152Z,13.83
2022-11-07T03:39:14.645Z,13.80
2022-11-07T03:41:44.182Z,13.82
2022-11-07T03:44:15.048Z,13.83
2022-11-07T03:46:44.630Z,13.84
2022-11-07T03:49:14.173Z,13.85
2022-11-07T03:51:43.692Z,13.81
2022-11-07T03:54:13.192Z,13.81
2022-11-07T03:56:42.742Z,13.84
2022-11-07T03:59:12.280Z,13.80
2022-11-07T04:01:44.457Z,13.81
2022-11-07T04:04:14.409Z,13.78
2022-11-07T04:06:43.928Z,13.79
2022-11-07T04:09:13.472Z,13.80
2022-11-07T04:12:00.584Z,13.80
2022-11-07T04:14:47.867Z,13.79
2022-11-07T04:17:22.097Z,13.73
2022-11-07T04:19:52.515Z,13.74
2022-11-07T04:22:22.032Z,13.73
2022-11-07T04:24:51.548Z,13.72
2022-11-07T04:27:39.010Z,13.71
2022-11-07T04:30:20.084Z,13.72
2022-11-07T04:32:52.010Z,13.66
2022-11-07T04:35:22.306Z,13.65
2022-11-07T04:37:51.930Z,13.67
2022-11-07T04:40:21.839Z,13.64
2022-11-07T04:42:51.596Z,13.65
2022-11-07T04:45:21.067Z,13.64
2022-11-07T04:47:52.144Z,13.64
2022-11-07T04:50:21.902Z,13.66
2022-11-07T04:52:51.499Z,13.65
2022-11-07T04:55:22.165Z,13.63
2022-11-07T04:57:51.692Z,13.60
2022-11-07T05:00:21.682Z,13.57
2022-11-07T05:02:52.554Z,13.53
2022-11-07T05:05:22.175Z,13.49
2022-11-07T05:07:51.640Z,13.46
2022-11-07T05:10:22.341Z,13.43
2022-11-07T05:12:53.274Z,13.40
2022-11-07T05:15:23.316Z,13.41
2022-11-07T05:17:54.301Z,13.40
2022-11-07T05:20:27.670Z,13.40
2022-11-07T05:23:17.763Z,13.36
2022-11-07T05:25:48.994Z,13.36
2022-11-07T05:28:25.664Z,13.34
2022-11-07T05:31:00.484Z,13.34
2022-11-07T05:33:31.307Z,13.34
2022-11-07T05:36:09.560Z,13.34
2022-11-07T05:38:40.807Z,13.34
2022-11-07T05:41:10.529Z,13.34
2022-11-07T05:43:40.242Z,13.36
2022-11-07T05:46:11.269Z,13.33
2022-11-07T05:48:42.323Z,13.37
2022-11-07T05:51:12.105Z,13.35
2022-11-07T05:53:41.790Z,13.29
2022-11-07T05:56:11.828Z,13.30
2022-11-07T05:58:51.280Z,13.35
2022-11-07T06:01:20.864Z,13.40
2022-11-07T06:03:51.716Z,13.38
2022-11-07T06:06:21.243Z,13.35
2022-11-07T06:08:53.154Z,13.37
2022-11-07T06:11:22.855Z,13.43
2022-11-07T06:13:54.386Z,13.45
2022-11-07T06:16:23.965Z,13.48
2022-11-07T06:18:54.976Z,13.53
2022-11-07T06:21:24.584Z,13.51
2022-11-07T06:23:54.212Z,13.53
2022-11-07T06:26:23.757Z,13.60
2022-11-07T06:28:53.374Z,13.64
2022-11-07T06:31:22.944Z,13.73
2022-11-07T06:33:52.680Z,13.84
2022-11-07T06:36:23.532Z,13.90
2022-11-07T06:38:53.640Z,13.96
2022-11-07T06:41:23.196Z,14.04
2022-11-07T06:43:52.818Z,14.09
2022-11-07T06:46:23.316Z,14.08
2022-11-07T06:48:52.815Z,14.13
2022-11-07T06:51:23.868Z,14.13
2022-11-07T06:53:54.309Z,14.14
2022-11-07T06:56:23.926Z,14.20
2022-11-07T06:58:53.442Z,14.20
2022-11-07T07:01:23.004Z,14.24
2022-11-07T07:03:53.198Z,14.25
2022-11-07T07:06:24.474Z,14.30
2022-11-07T07:08:55.622Z,14.33
2022-11-07T07:11:25.170Z,14.35
2022-11-07T07:14:01.819Z,14.34
2022-11-07T07:16:32.323Z,14.36
2022-11-07T07:19:02.019Z,14.39
2022-11-07T07:21:34.309Z,14.49
2022-11-07T07:24:03.892Z,14.58
2022-11-07T07:26:33.755Z,14.63
2022-11-07T07:29:03.223Z,14.72
2022-11-07T07:31:32.955Z,14.83
2022-11-07T07:34:02.600Z,14.87
2022-11-07T07:36:33.924Z,14.88
2022-11-07T07:39:03.719Z,14.90
2022-11-07T07:41:39.012Z,14.95
2022-11-07T07:44:09.737Z,15.08
2022-11-07T07:46:49.268Z,15.20
2022-11-07T07:49:18.852Z,15.30
2022-11-07T07:51:49.719Z,15.28
2022-11-07T07:54:19.257Z,15.36
2022-11-07T07:56:48.809Z,15.43
2022-11-07T07:59:18.470Z,15.59
2022-11-07T08:01:53.564Z,15.63
2022-11-07T08:04:26.245Z,15.73
2022-11-07T08:06:57.122Z,15.76
2022-11-07T08:09:26.809Z,15.80
2022-11-07T08:11:56.965Z,15.89
2022-11-07T08:14:26.982Z,15.81
2022-11-07T08:16:57.646Z,15.75
2022-11-07T08:19:27.445Z,15.62
2022-11-07T08:21:58.477Z,15.68
2022-11-07T08:24:28.039Z,15.64
2022-11-07T08:26:57.686Z,15.63
2022-11-07T08:29:27.395Z,15.61
2022-11-07T08:31:56.952Z,15.57
2022-11-07T08:34:26.668Z,15.53
2022-11-07T08:36:56.232Z,15.53
2022-11-07T08:39:27.174Z,15.50
2022-11-07T08:41:56.772Z,15.49
2022-11-07T08:44:26.395Z,15.49
2022-11-07T08:46:55.904Z,15.48
2022-11-07T08:49:25.446Z,15.57
2022-11-07T08:51:54.973Z,15.53
2022-11-07T08:54:25.817Z,15.56
2022-11-07T08:56:56.797Z,15.56
2022-11-07T08:59:26.362Z,15.59
2022-11-07T09:02:39.105Z,15.54
2022-11-07T09:04:47.277Z,15.59
2022-11-07T09:07:16.953Z,15.61
2022-11-07T09:09:46.942Z,15.63
2022-11-07T09:12:18.555Z,15.68
2022-11-07T09:14:48.693Z,15.72
2022-11-07T09:17:19.107Z,15.72
2022-11-07T09:19:48.656Z,15.73
2022-11-07T09:22:18.490Z,15.75
2022-11-07T09:24:48.318Z,15.79
2022-11-07T09:27:19.352Z,15.80
2022-11-07T09:29:48.946Z,15.81
2022-11-07T09:32:43.296Z,15.75
2022-11-07T09:35:08.852Z,15.79
2022-11-07T09:37:38.885Z,15.81
2022-11-07T09:40:21.305Z,15.84
2022-11-07T09:42:57.233Z,15.93
2022-11-07T09:45:26.908Z,15.96
2022-11-07T09:47:59.017Z,15.99
2022-11-07T09:50:30.768Z,15.97
2022-11-07T09:53:02.666Z,15.97
2022-11-07T09:55:33.498Z,16.00
2022-11-07T09:58:06.273Z,16.06
2022-11-07T10:00:36.003Z,15.97
2022-11-07T10:03:05.734Z,15.91
2022-11-07T10:05:40.470Z,15.89
2022-11-07T10:08:13.143Z,15.87
2022-11-07T10:10:45.740Z,16.01
2022-11-07T10:13:27.766Z,16.15
2022-11-07T10:16:04.549Z,16.28
2022-11-07T10:18:43.203Z,16.25
2022-11-07T10:24:26.147Z,16.16
2022-11-07T10:26:57.203Z,16.06
2022-11-07T10:29:30.718Z,16.05
2022-11-07T10:32:10.878Z,16.05
2022-11-07T10:34:44.222Z,15.98
2022-11-07T10:37:14.240Z,15.96
2022-11-07T10:39:43.925Z,15.97
2022-11-07T10:42:18.096Z,16.08
2022-11-07T10:44:49.931Z,16.12
2022-11-07T10:47:20.697Z,16.16
2022-11-07T10:50:00.094Z,16.08
2022-11-07T10:52:30.414Z,16.08
2022-11-07T10:55:06.835Z,16.00
2022-11-07T10:57:36.807Z,15.95
2022-11-07T11:00:21.745Z,15.87
2022-11-07T11:02:51.892Z,15.94
2022-11-07T11:05:23.819Z,15.89
2022-11-07T11:07:55.350Z,16.07
2022-11-07T11:10:26.182Z,16.24
2022-11-07T11:12:57.856Z,16.28
2022-11-07T11:15:34.485Z,16.29
2022-11-07T11:18:06.884Z,16.25
2022-11-07T11:20:38.271Z,16.16
2022-11-07T11:23:09.213Z,16.09
2022-11-07T11:25:46.400Z,16.00
2022-11-07T11:28:21.378Z,16.00
2022-11-07T11:30:56.080Z,16.06
2022-11-07T11:33:28.150Z,16.08
2022-11-07T11:35:59.957Z,16.11
2022-11-07T11:38:30.856Z,16.17
2022-11-07T11:41:09.361Z,16.23
2022-11-07T11:43:44.990Z,16.23
2022-11-07T11:46:21.624Z,16.15
2022-11-07T11:48:53.870Z,16.12
2022-11-07T11:51:37.800Z,16.15
2022-11-07T11:54:09.730Z,16.12
2022-11-07T11:56:44.558Z,16.10
2022-11-07T11:59:26.847Z,16.12
2022-11-07T12:02:03.827Z,16.13
2022-11-07T12:04:39.581Z,16.11
2022-11-07T12:07:15.597Z,16.16
2022-11-07T12:09:47.983Z,16.12
2022-11-07T12:12:24.375Z,16.09
2022-11-07T12:15:08.348Z,16.08
2022-11-07T12:17:42.622Z,16.10
2022-11-07T12:20:18.093Z,16.10
2022-11-07T12:23:05.526Z,16.10
2022-11-07T12:25:38.777Z,16.05
2022-11-07T12:28:25.166Z,16.04
2022-11-07T12:30:59.651Z,16.01
2022-11-07T12:33:34.920Z,16.03
2022-11-07T12:36:11.905Z,16.02
2022-11-07T12:38:59.977Z,16.05
2022-11-07T12:41:34.801Z,16.05
2022-11-07T12:44:11.329Z,16.02
2022-11-07T12:46:47.126Z,16.01
2022-11-07T12:49:33.392Z,16.00
2022-11-07T12:52:10.530Z,16.00
2022-11-07T12:54:48.036Z,16.00
2022-11-07T12:57:20.175Z,16.00
2022-11-07T12:59:52.716Z,15.93
2022-11-07T13:02:30.462Z,15.92
2022-11-07T13:05:09.657Z,15.90
2022-11-07T13:07:42.480Z,15.88
2022-11-07T13:10:16.153Z,15.88
2022-11-07T13:12:54.019Z,15.91
2022-11-07T13:15:24.583Z,15.92
2022-11-07T13:17:54.508Z,15.89
2022-11-07T13:20:27.775Z,15.91
2022-11-07T13:22:58.354Z,15.89
2022-11-07T13:25:29.809Z,15.89
2022-11-07T13:28:04.338Z,15.86
2022-11-07T13:30:36.408Z,15.86
2022-11-07T13:33:07.112Z,15.84
2022-11-07T13:35:38.982Z,15.89
2022-11-07T13:38:12.323Z,15.89
2022-11-07T13:40:45.898Z,15.83
2022-11-07T13:43:19.034Z,15.80
2022-11-07T13:45:50.706Z,15.77
2022-11-07T13:48:22.719Z,15.74
2022-11-07T13:50:59.072Z,15.74
2022-11-07T13:53:32.355Z,15.73
2022-11-07T13:56:04.463Z,15.72
2022-11-07T13:58:36.380Z,15.72
2022-11-07T14:01:10.302Z,15.71
2022-11-07T14:03:39.991Z,15.69
2022-11-07T14:06:13.619Z,15.67
2022-11-07T14:08:46.064Z,15.65
2022-11-07T14:11:17.773Z,15.63
2022-11-07T14:13:48.852Z,15.59
2022-11-07T14:16:21.100Z,15.57
2022-11-07T14:18:52.409Z,15.54
2022-11-07T14:21:24.209Z,15.54
2022-11-07T14:23:53.863Z,15.52
2022-11-07T14:26:25.958Z,15.47
2022-11-07T14:28:56.976Z,15.46
2022-11-07T14:31:28.125Z,15.42
2022-11-07T14:33:59.707Z,15.39
2022-11-07T14:36:31.428Z,15.37
2022-11-07T14:39:02.785Z,15.31
2022-11-07T14:41:32.442Z,15.27
2022-11-07T14:44:04.845Z,15.26
2022-11-07T14:46:34.886Z,15.21
2022-11-07T14:49:04.805Z,15.18
2022-11-07T14:51:36.554Z,15.14
2022-11-07T14:54:07.593Z,15.10
2022-11-07T14:56:39.760Z,15.04
2022-11-07T14:59:10.308Z,15.01
2022-11-07T15:01:40.332Z,14.97
2022-11-07T15:04:17.122Z,14.91
2022-11-07T15:06:48.409Z,14.86
2022-11-07T15:09:18.336Z,14.83
2022-11-07T15:11:56.982Z,14.82
2022-11-07T15:14:30.853Z,14.76
2022-11-07T15:17:04.214Z,14.67
2022-11-07T15:19:35.658Z,14.61
2022-11-07T15:22:07.473Z,14.57
2022-11-07T15:24:39.108Z,14.57
2022-11-07T15:27:19.869Z,14.56
2022-11-07T15:29:53.720Z,14.55
2022-11-07T15:32:24.505Z,14.47
2022-11-07T15:35:12.082Z,14.45
2022-11-07T15:37:53.978Z,14.37
2022-11-07T15:40:23.863Z,14.30
2022-11-07T15:42:56.025Z,14.33
2022-11-07T15:45:25.784Z,14.22
2022-11-07T15:47:55.406Z,14.11
2022-11-07T15:50:26.498Z,14.12
2022-11-07T15:52:57.451Z,14.10
2022-11-07T15:55:27.132Z,14.04
2022-11-07T15:57:56.746Z,13.96
2022-11-07T16:00:26.907Z,13.91
2022-11-07T16:02:58.523Z,13.93
2022-11-07T16:05:28.593Z,13.88
2022-11-07T16:08:02.437Z,13.84
2022-11-07T16:10:32.293Z,13.74
2022-11-07T16:13:05.607Z,13.70
2022-11-07T16:15:35.674Z,13.71
2022-11-07T16:18:05.809Z,13.65
2022-11-07T16:20:35.493Z,13.61
2022-11-07T16:23:06.738Z,13.54
2022-11-07T16:25:37.455Z,13.55
2022-11-07T16:28:08.069Z,13.49
2022-11-07T16:30:37.627Z,13.42
2022-11-07T16:33:07.413Z,13.49
2022-11-07T16:35:37.033Z,13.49
2022-11-07T16:38:12.028Z,13.48
2022-11-07T16:40:41.583Z,13.40
2022-11-07T16:43:11.196Z,13.25
2022-11-07T16:45:46.169Z,13.23
2022-11-07T16:48:23.721Z,13.19
2022-11-07T16:50:54.214Z,13.15
2022-11-07T16:53:25.985Z,13.17
2022-11-07T16:55:56.246Z,13.03
2022-11-07T16:58:27.147Z,13.06
2022-11-07T17:00:58.050Z,13.15
2022-11-07T17:03:27.710Z,13.01
2022-11-07T17:05:59.115Z,13.04
2022-11-07T17:08:33.772Z,13.02
2022-11-07T17:11:03.835Z,12.85
2022-11-07T17:13:39.031Z,12.94
2022-11-07T17:16:13.032Z,12.96
2022-11-07T17:18:42.889Z,13.02
2022-11-07T17:21:20.846Z,13.03
2022-11-07T17:23:52.043Z,13.00
2022-11-07T17:26:22.962Z,13.04
2022-11-07T17:28:52.943Z,13.09
2022-11-07T17:31:26.030Z,12.99
2022-11-07T17:33:56.807Z,12.94
2022-11-07T17:36:35.350Z,12.92
2022-11-07T17:39:11.652Z,12.90
2022-11-07T17:41:41.875Z,12.82
2022-11-07T17:44:11.875Z,12.79
2022-11-07T17:46:42.655Z,12.77
2022-11-07T17:49:14.091Z,12.75
2022-11-07T17:51:43.861Z,12.66
2022-11-07T17:54:15.814Z,12.68
2022-11-07T17:56:45.488Z,12.63
2022-11-07T17:59:16.170Z,12.61
2022-11-07T18:01:45.910Z,12.54
2022-11-07T18:04:15.955Z,12.52
2022-11-07T18:06:45.540Z,12.54
2022-11-07T18:09:16.790Z,12.48
2022-11-07T18:11:46.397Z,12.53
2022-11-07T18:14:16.315Z,12.62
2022-11-07T18:16:45.946Z,12.59
2022-11-07T18:19:17.537Z,12.52
2022-11-07T18:21:47.177Z,12.51
2022-11-07T18:24:18.516Z,12.43
2022-11-07T18:26:50.131Z,12.24
2022-11-07T18:29:19.980Z,12.30
2022-11-07T18:31:49.886Z,12.27
2022-11-07T18:34:20.545Z,12.24
2022-11-07T18:36:50.143Z,12.15
2022-11-07T18:39:22.704Z,12.18
2022-11-07T18:41:54.030Z,12.14
2022-11-07T18:44:23.796Z,12.13
2022-11-07T18:46:53.330Z,12.21
2022-11-07T18:49:24.469Z,12.23
2022-11-07T18:51:54.019Z,12.16
2022-11-07T18:54:26.270Z,12.09
2022-11-07T18:56:56.197Z,12.08
2022-11-07T18:59:25.689Z,12.08
2022-11-07T19:01:55.426Z,12.12
2022-11-07T19:04:25.255Z,12.11
2022-11-07T19:06:57.899Z,12.09
2022-11-07T19:09:29.970Z,12.11
2022-11-07T19:12:01.255Z,12.02
2022-11-07T19:14:31.929Z,11.99
2022-11-07T19:17:01.850Z,11.93
2022-11-07T19:19:32.194Z,11.88
2022-11-07T19:22:01.852Z,11.92
2022-11-07T19:24:32.826Z,11.82
2022-11-07T19:27:02.546Z,11.67
2022-11-07T19:29:32.360Z,11.75
2022-11-07T19:32:01.973Z,11.63
2022-11-07T19:34:31.793Z,11.47
2022-11-07T19:37:01.285Z,11.48
2022-11-07T19:39:36.540Z,11.45
2022-11-07T19:42:06.298Z,11.42
2022-11-07T19:44:36.433Z,11.28
2022-11-07T19:47:06.158Z,11.25
2022-11-07T19:49:35.739Z,11.25
2022-11-07T19:52:05.594Z,11.19
2022-11-07T19:54:36.547Z,11.11
2022-11-07T19:57:06.265Z,11.13
2022-11-07T19:59:35.769Z,11.02
2022-11-07T20:02:30.995Z,10.91
2022-11-07T20:04:56.201Z,10.88
2022-11-07T20:07:25.649Z,10.61
2022-11-07T20:09:58.872Z,10.67
2022-11-07T20:12:29.418Z,10.58
2022-11-07T20:15:00.078Z,10.50
2022-11-07T20:17:30.289Z,10.40
2022-11-07T20:20:03.924Z,10.53
2022-11-07T20:22:36.728Z,10.37
2022-11-07T20:25:08.194Z,10.39
2022-11-07T20:27:37.838Z,10.35
2022-11-07T20:30:08.073Z,10.35
2022-11-07T20:32:37.913Z,10.13
2022-11-07T20:35:08.165Z,10.12
2022-11-07T20:37:37.887Z,10.09
2022-11-07T20:40:10.313Z,10.01
2022-11-07T20:42:40.118Z,10.06
2022-11-07T20:45:13.263Z,10.00
2022-11-07T20:47:42.951Z,9.92
2022-11-07T20:50:12.623Z,9.88
2022-11-07T20:52:42.329Z,9.90
2022-11-07T20:55:13.504Z,9.90
2022-11-07T20:57:44.057Z,9.86
2022-11-07T21:00:14.308Z,9.89
2022-11-07T21:02:44.030Z,9.88
2022-11-07T21:05:18.333Z,9.86
2022-11-07T21:07:48.344Z,9.85
2022-11-07T21:10:19.461Z,9.91
2022-11-07T21:12:49.461Z,9.90
2022-11-07T21:15:19.721Z,9.96
2022-11-07T21:17:49.202Z,10.02
2022-11-07T21:20:19.118Z,10.06
2022-11-07T21:22:49.476Z,10.09
2022-11-07T21:25:20.462Z,10.04
2022-11-07T21:27:50.218Z,10.09
2022-11-07T21:30:19.779Z,10.13
2022-11-07T21:32:49.281Z,10.13
2022-11-07T21:35:18.882Z,10.03
2022-11-07T21:37:48.416Z,10.02
2022-11-07T21:40:18.058Z,10.08
2022-11-07T21:42:48.943Z,10.16
2022-11-07T21:45:18.528Z,10.15
2022-11-07T21:47:48.254Z,10.15
2022-11-07T21:50:42.803Z,10.09
2022-11-07T21:53:08.712Z,10.13
2022-11-07T21:55:38.299Z,10.10
2022-11-07T21:58:09.201Z,10.11
2022-11-07T22:00:40.194Z,10.10
2022-11-07T22:03:09.731Z,10.14
2022-11-07T22:05:39.975Z,10.12
2022-11-07T22:08:09.605Z,10.02
2022-11-07T22:10:39.137Z,9.70
2022-11-07T22:13:10.596Z,9.70
2022-11-07T22:15:40.969Z,9.70
2022-11-07T22:18:10.974Z,9.83
2022-11-07T22:20:40.847Z,9.90
2022-11-07T22:23:10.482Z,9.92
2022-11-07T22:25:40.013Z,9.92
2022-11-07T22:28:11.105Z,9.94
2022-11-07T22:30:40.699Z,9.94
2022-11-07T22:33:12.022Z,9.92
2022-11-07T22:35:41.552Z,9.82
2022-11-07T22:38:11.393Z,9.73
2022-11-07T22:40:44.237Z,9.81
2022-11-07T22:43:15.574Z,9.87
2022-11-07T22:45:45.430Z,9.84
2022-11-07T22:48:15.116Z,9.86
2022-11-07T22:50:44.729Z,9.75
2022-11-07T22:53:14.653Z,9.74
2022-11-07T22:55:44.389Z,9.69
2022-11-07T22:58:15.962Z,9.54
2022-11-07T23:00:45.801Z,9.35
2022-11-07T23:03:15.352Z,9.46
2022-11-07T23:05:44.904Z,9.38
2022-11-07T23:08:33.866Z,9.43
2022-11-07T23:14:00.497Z,9.39
2022-11-07T23:16:32.917Z,9.42
2022-11-07T23:19:03.978Z,9.53
2022-11-07T23:21:33.757Z,9.58
2022-11-07T23:24:03.579Z,9.62
2022-11-07T23:26:34.702Z,9.64
2022-11-07T23:29:10.751Z,9.57
2022-11-07T23:31:41.096Z,9.53
2022-11-07T23:34:11.308Z,9.53
2022-11-07T23:36:43.945Z,9.54
2022-11-07T23:39:14.849Z,9.49
2022-11-07T23:41:44.688Z,9.30
2022-11-07T23:44:16.212Z,9.37
2022-11-07T23:47:03.485Z,9.52
2022-11-07T23:49:49.545Z,9.47
2022-11-07T23:52:19.370Z,9.55
2022-11-07T23:55:06.529Z,9.52
2022-11-07T23:57:56.508Z,9.36
